Johannesburg, South Africa
Current Conditions -  °F | °C
As of 4:30 PM on Saturday 25 Oct 2014 (Local Time) from FAOR Reporting Station
Clear Clear  
Wind Chill: 79°   Ceiling: Unl
Heat Index: 79°   Visibility: 6mi
Dew Point: 48°   Wind: 16mph
Humidity: 34%   Direction: 20°NNE
Pressure: 30.09"   Gusts: NA
Location:  26.19°S, 28.04°E
Report Text: FAOR 251430Z 02014KT CAVOK 26/09 Q1019 NOSIG RMK DIST CB TO S . SE
Loading
Personal Weather Stations






























Interactive Weather Map
Tropical Storm Tracking
New forecast layout! Learn more

10-Day Weather Forecast

Advertisements
Track Severe Weather on mobile